createdAt,value
2019-01-22T00:02:37.132Z,102267.46
2019-01-22T00:05:40.912Z,102264.12
2019-01-22T00:08:44.514Z,102264.91
2019-01-22T00:11:48.062Z,102265.46
2019-01-22T00:14:51.850Z,102257.43
2019-01-22T00:17:55.621Z,102254.79
2019-01-22T00:20:59.285Z,102249.35
2019-01-22T00:24:02.915Z,102239.48
2019-01-22T00:27:06.531Z,102242.38
2019-01-22T00:30:13.427Z,102237.63
2019-01-22T00:33:17.072Z,102239.24
2019-01-22T00:36:20.653Z,102232.46
2019-01-22T00:39:24.327Z,102229.98
2019-01-22T00:42:28.018Z,102233.47
2019-01-22T00:45:31.642Z,102231.23
2019-01-22T00:48:35.184Z,102222.19
2019-01-22T00:51:38.855Z,102225.87
2019-01-22T00:54:42.465Z,102223.26
2019-01-22T00:57:46.126Z,102220.51
2019-01-22T01:00:49.687Z,102214.49
2019-01-22T01:03:53.354Z,102221.13
2019-01-22T01:06:57.088Z,102213.44
2019-01-22T01:10:00.661Z,102203.87
2019-01-22T01:13:04.394Z,102211.58
2019-01-22T01:16:08.081Z,102205.31
2019-01-22T01:19:11.823Z,102203.43
2019-01-22T01:22:15.377Z,102198.36
2019-01-22T01:25:20.415Z,102191.59
2019-01-22T01:28:24.122Z,102198.25
2019-01-22T01:31:27.917Z,102188.33
2019-01-22T01:34:31.436Z,102181.25
2019-01-22T01:37:35.158Z,102182.91
2019-01-22T01:40:38.884Z,102176.65
2019-01-22T01:43:42.601Z,102168.80
2019-01-22T01:46:46.310Z,102161.82
2019-01-22T01:49:50.015Z,102166.50
2019-01-22T01:52:53.811Z,102157.05
2019-01-22T01:55:57.459Z,102152.04
2019-01-22T01:59:01.175Z,102149.52
2019-01-22T02:02:04.944Z,102142.23
2019-01-22T02:05:08.666Z,102141.12
2019-01-22T02:08:12.279Z,102133.52
2019-01-22T02:11:15.826Z,102137.17
2019-01-22T02:14:23.489Z,102131.08
2019-01-22T02:18:38.989Z,102122.52
2019-01-22T02:21:55.235Z,102120.98
2019-01-22T02:25:16.490Z,102115.91
2019-01-22T02:28:49.541Z,102113.41
2019-01-22T02:32:02.819Z,102108.05
2019-01-22T02:35:16.794Z,102097.58
2019-01-22T02:40:33.246Z,102088.14
2019-01-22T02:43:51.747Z,102091.10
2019-01-22T02:47:40.129Z,102090.63
2019-01-22T02:51:02.100Z,102087.44
2019-01-22T02:54:21.243Z,102086.57
2019-01-22T02:58:40.686Z,102081.10
2019-01-22T03:02:00.080Z,102070.46
2019-01-22T03:05:13.289Z,102070.49
2019-01-22T03:09:28.935Z,102062.43
2019-01-22T03:13:12.544Z,102064.89
2019-01-22T03:16:27.050Z,102051.63
2019-01-22T03:19:54.943Z,102053.84
2019-01-22T03:25:10.613Z,102046.56
2019-01-22T03:28:25.084Z,102034.08
2019-01-22T03:33:38.989Z,102030.35
2019-01-22T03:37:05.499Z,102023.95
2019-01-22T03:40:24.745Z,102015.65
2019-01-22T03:43:42.597Z,102015.11
2019-01-22T03:47:07.590Z,102013.80
2019-01-22T03:50:32.661Z,102004.72
2019-01-22T03:53:54.873Z,101997.18
2019-01-22T03:57:08.173Z,101991.69
2019-01-22T04:00:18.914Z,101987.86
2019-01-22T04:03:22.631Z,101985.17
2019-01-22T04:06:29.830Z,101984.50
2019-01-22T04:09:44.531Z,101985.03
2019-01-22T04:12:48.412Z,101984.52
2019-01-22T04:15:52.291Z,101991.29
2019-01-22T04:18:56.005Z,101990.59
2019-01-22T04:21:59.679Z,101981.97
2019-01-22T04:25:26.576Z,101978.98
2019-01-22T04:30:45.064Z,101973.27
2019-01-22T04:34:23.328Z,101964.63
2019-01-22T04:38:42.229Z,101961.07
2019-01-22T04:41:58.352Z,101957.34
2019-01-22T04:49:20.120Z,101951.81
2019-01-22T04:52:38.447Z,101938.91
2019-01-22T04:55:50.390Z,101940.72
2019-01-22T04:59:06.565Z,101937.70
2019-01-22T05:04:29.974Z,101936.30
2019-01-22T05:07:48.599Z,101930.11
2019-01-22T05:11:02.275Z,101927.49
2019-01-22T05:14:22.078Z,101923.11
2019-01-22T05:18:42.521Z,101919.92
2019-01-22T05:21:58.894Z,101915.84
2019-01-22T05:27:11.938Z,101915.58
2019-01-22T05:30:34.288Z,101908.96
2019-01-22T05:34:50.165Z,101906.02
2019-01-22T05:38:10.083Z,101899.87
2019-01-22T05:43:25.799Z,101899.79
2019-01-22T05:46:46.098Z,101895.82
2019-01-22T05:52:15.163Z,101898.49
2019-01-22T05:55:25.433Z,101902.45
2019-01-22T06:00:46.947Z,101896.09
2019-01-22T06:04:04.407Z,101891.07
2019-01-22T06:07:26.052Z,101896.70
2019-01-22T06:10:42.197Z,101891.45
2019-01-22T06:14:01.753Z,101888.29
2019-01-22T06:17:49.936Z,101877.70
2019-01-22T06:23:08.830Z,101880.02
2019-01-22T06:26:27.725Z,101871.02
2019-01-22T06:31:46.351Z,101860.28
2019-01-22T06:37:07.856Z,101855.49
2019-01-22T06:40:20.644Z,101846.58
2019-01-22T06:44:41.506Z,101842.89
2019-01-22T06:47:59.029Z,101835.86
2019-01-22T06:51:16.409Z,101838.98
2019-01-22T06:54:27.066Z,101835.42
2019-01-22T06:57:41.710Z,101831.65
2019-01-22T07:01:05.469Z,101830.64
2019-01-22T07:04:32.699Z,101836.95
2019-01-22T07:07:55.167Z,101826.08
2019-01-22T07:11:41.543Z,101819.61
2019-01-22T07:14:57.639Z,101822.81
2019-01-22T07:19:28.399Z,101812.80
2019-01-22T07:22:44.240Z,101800.92
2019-01-22T07:28:04.446Z,101789.99
2019-01-22T07:31:54.745Z,101781.88
2019-01-22T07:35:14.933Z,101780.82
2019-01-22T07:38:29.358Z,101776.43
2019-01-22T07:42:16.076Z,101778.59
2019-01-22T07:45:33.245Z,101780.84
2019-01-22T07:48:48.704Z,101773.80
2019-01-22T07:52:04.092Z,101776.70
2019-01-22T07:55:24.556Z,101770.74
2019-01-22T07:58:39.795Z,101761.60
2019-01-22T08:01:58.332Z,101757.55
2019-01-22T08:05:21.194Z,101754.10
2019-01-22T08:08:46.139Z,101759.92
2019-01-22T08:12:03.528Z,101762.72
2019-01-22T08:15:22.292Z,101755.85
2019-01-22T08:18:42.379Z,101755.80
2019-01-22T08:21:58.755Z,101752.18
2019-01-22T08:27:20.358Z,101745.63
2019-01-22T08:31:08.139Z,101742.40
2019-01-22T08:34:21.646Z,101731.88
2019-01-22T08:37:52.863Z,101724.67
2019-01-22T08:41:13.528Z,101716.85
2019-01-22T08:45:33.562Z,101717.27
2019-01-22T08:49:04.902Z,101716.32
2019-01-22T08:52:25.367Z,101709.64
2019-01-22T08:56:09.476Z,101707.02
2019-01-22T08:59:28.944Z,101699.19
2019-01-22T09:02:47.720Z,101690.01
2019-01-22T09:06:12.416Z,101685.99
2019-01-22T09:11:28.937Z,101679.90
2019-01-22T09:14:58.610Z,101678.76
2019-01-22T09:18:10.631Z,101675.97
2019-01-22T09:21:59.063Z,101673.34
2019-01-22T09:25:14.588Z,101667.56
2019-01-22T09:30:30.126Z,101659.94
2019-01-22T09:33:44.373Z,101657.48
2019-01-22T09:37:08.648Z,101649.17
2019-01-22T09:40:12.275Z,101648.53
2019-01-22T09:43:15.900Z,101646.34
2019-01-22T09:46:19.498Z,101645.83
2019-01-22T09:49:23.128Z,101640.76
2019-01-22T09:52:26.738Z,101636.17
2019-01-22T09:55:30.537Z,101634.15
2019-01-22T09:58:34.139Z,101625.00
2019-01-22T10:01:37.732Z,101631.79
2019-01-22T10:04:41.338Z,101622.81
2019-01-22T10:07:44.839Z,101622.47
2019-01-22T10:10:48.595Z,101616.90
2019-01-22T10:13:52.336Z,101605.73
2019-01-22T10:16:56.102Z,101605.08
2019-01-22T10:20:00.035Z,101605.08
2019-01-22T10:23:03.923Z,101597.98
2019-01-22T10:26:07.721Z,101591.10
2019-01-22T10:29:11.351Z,101584.09
2019-01-22T10:32:15.086Z,101580.43
2019-01-22T10:35:18.850Z,101570.46
2019-01-22T10:38:22.467Z,101562.39
2019-01-22T10:41:26.223Z,101551.08
2019-01-22T10:44:29.897Z,101547.06
2019-01-22T10:47:33.670Z,101544.14
2019-01-22T10:50:37.343Z,101535.37
2019-01-22T10:53:41.064Z,101529.00
2019-01-22T10:56:44.758Z,101525.68
2019-01-22T10:59:48.499Z,101524.90
2019-01-22T11:02:52.210Z,101510.97
2019-01-22T11:05:55.877Z,101510.65
2019-01-22T11:08:59.524Z,101506.35
2019-01-22T11:12:03.242Z,101501.85
2019-01-22T11:15:07.767Z,101491.15
2019-01-22T11:18:11.629Z,101486.39
2019-01-22T11:21:15.400Z,101480.07
2019-01-22T11:24:19.140Z,101471.63
2019-01-22T11:27:22.866Z,101467.38
2019-01-22T11:30:26.618Z,101454.82
2019-01-22T11:33:33.444Z,101449.50
2019-01-22T11:36:34.035Z,101443.86
2019-01-22T11:39:37.757Z,101439.79
2019-01-22T11:42:41.347Z,101431.22
2019-01-22T11:45:45.409Z,101427.22
2019-01-22T11:48:49.486Z,101414.50
2019-01-22T11:51:53.268Z,101404.90
2019-01-22T11:54:56.900Z,101400.44
2019-01-22T11:58:00.583Z,101396.91
2019-01-22T12:01:04.518Z,101389.88
2019-01-22T12:04:08.100Z,101389.16
2019-01-22T12:07:11.735Z,101383.57
2019-01-22T12:10:15.444Z,101369.25
2019-01-22T12:13:19.174Z,101364.12
2019-01-22T12:16:22.926Z,101353.53
2019-01-22T12:19:26.548Z,101345.81
2019-01-22T12:22:30.210Z,101339.82
2019-01-22T12:25:34.845Z,101337.69
2019-01-22T12:28:38.752Z,101327.97
2019-01-22T12:31:42.613Z,101314.96
2019-01-22T12:34:46.193Z,101309.44
2019-01-22T12:37:49.852Z,101307.59
2019-01-22T12:40:53.531Z,101299.93
2019-01-22T12:43:57.317Z,101298.10
2019-01-22T12:47:00.968Z,101285.27
2019-01-22T12:50:04.776Z,101272.69
2019-01-22T12:53:10.505Z,101268.53
2019-01-22T12:56:14.315Z,101262.31
2019-01-22T12:59:18.111Z,101254.30
2019-01-22T13:02:22.610Z,101242.12
2019-01-22T13:05:36.949Z,101234.94
2019-01-22T13:08:40.679Z,101226.52
2019-01-22T13:11:44.503Z,101220.91
2019-01-22T13:14:48.427Z,101212.37
2019-01-22T13:17:52.113Z,101202.77
2019-01-22T13:20:55.918Z,101197.34
2019-01-22T13:23:59.534Z,101192.56
2019-01-22T13:27:03.280Z,101186.35
2019-01-22T13:30:10.400Z,101185.03
2019-01-22T13:33:14.162Z,101179.25
2019-01-22T13:36:17.804Z,101175.06
2019-01-22T13:39:21.498Z,101165.89
2019-01-22T13:42:25.262Z,101165.76
2019-01-22T13:45:29.810Z,101160.49
2019-01-22T13:48:34.088Z,101160.41
2019-01-22T13:51:37.767Z,101156.35
2019-01-22T13:54:41.399Z,101157.54
2019-01-22T13:57:45.049Z,101152.46
2019-01-22T14:00:48.770Z,101142.48
2019-01-22T14:03:52.430Z,101142.96
2019-01-22T14:06:56.242Z,101141.68
2019-01-22T14:10:00.041Z,101131.70
2019-01-22T14:13:03.856Z,101132.12
2019-01-22T14:16:07.602Z,101129.78
2019-01-22T14:19:11.358Z,101119.90
2019-01-22T14:22:15.177Z,101116.18
2019-01-22T14:25:19.734Z,101116.77
2019-01-22T14:28:23.654Z,101103.40
2019-01-22T14:31:27.400Z,101105.27
2019-01-22T14:34:31.038Z,101101.21
2019-01-22T14:37:34.780Z,101095.95
2019-01-22T14:40:38.548Z,101096.93
2019-01-22T14:43:42.184Z,101095.95
2019-01-22T14:46:45.859Z,101098.94
2019-01-22T14:49:49.596Z,101089.27
2019-01-22T14:52:53.255Z,101082.71
2019-01-22T14:55:57.964Z,101080.30
2019-01-22T14:59:01.660Z,101071.29
2019-01-22T15:02:05.551Z,101074.66
2019-01-22T15:05:09.380Z,101071.26
2019-01-22T15:08:13.461Z,101068.12
2019-01-22T15:11:27.239Z,101056.13
2019-01-22T15:14:31.018Z,101052.08
2019-01-22T15:17:43.577Z,101047.61
2019-01-22T15:20:50.678Z,101033.32
2019-01-22T15:23:54.779Z,101027.64
2019-01-22T15:27:00.590Z,101021.47
2019-01-22T15:30:05.807Z,101015.80
2019-01-22T15:33:09.586Z,101015.41
2019-01-22T15:36:13.262Z,101014.45
2019-01-22T15:39:16.865Z,101010.87
2019-01-22T15:42:20.514Z,101006.43
2019-01-22T15:45:24.625Z,100998.16
2019-01-22T15:48:29.509Z,100989.57
2019-01-22T15:51:33.250Z,100986.90
2019-01-22T15:54:37.004Z,100986.58
2019-01-22T15:57:41.171Z,100984.37
2019-01-22T16:00:44.872Z,100987.17
2019-01-22T16:03:48.370Z,100981.22
2019-01-22T16:06:51.876Z,100978.64
2019-01-22T16:09:55.476Z,100976.99
2019-01-22T16:12:59.182Z,100969.03
2019-01-22T16:16:02.741Z,100971.74
2019-01-22T16:19:06.394Z,100972.11
2019-01-22T16:22:09.916Z,100971.96
2019-01-22T16:25:13.702Z,100964.62
2019-01-22T16:28:17.333Z,100960.68
2019-01-22T16:31:20.945Z,100958.17
2019-01-22T16:34:24.524Z,100957.34
2019-01-22T16:37:28.061Z,100952.69
2019-01-22T16:40:31.664Z,100939.48
2019-01-22T16:43:35.321Z,100938.28
2019-01-22T16:46:38.927Z,100927.52
2019-01-22T16:49:42.537Z,100922.58
2019-01-22T16:52:46.189Z,100921.56
2019-01-22T16:55:49.903Z,100918.60
2019-01-22T16:58:53.591Z,100920.73
2019-01-22T17:01:57.236Z,100914.43
2019-01-22T17:05:00.864Z,100912.82
2019-01-22T17:08:04.551Z,100906.87
2019-01-22T17:11:08.186Z,100908.92
2019-01-22T17:14:11.765Z,100900.50
2019-01-22T17:17:16.036Z,100899.46
2019-01-22T17:20:22.627Z,100894.78
2019-01-22T17:23:27.396Z,100896.45
2019-01-22T17:26:31.111Z,100891.45
2019-01-22T17:29:36.743Z,100888.95
2019-01-22T17:32:47.052Z,100886.90
2019-01-22T17:35:51.630Z,100879.56
2019-01-22T17:38:55.350Z,100876.04
2019-01-22T17:41:59.010Z,100869.33
2019-01-22T17:45:02.766Z,100863.39
2019-01-22T17:48:06.618Z,100864.57
2019-01-22T17:51:10.334Z,100858.94
2019-01-22T17:54:13.993Z,100856.69
2019-01-22T17:57:17.625Z,100854.05
2019-01-22T18:00:23.636Z,100851.94
2019-01-22T18:03:27.427Z,100844.93
2019-01-22T18:06:31.075Z,100843.97
2019-01-22T18:09:34.936Z,100838.08
2019-01-22T18:12:38.590Z,100824.38
2019-01-22T18:15:42.172Z,100823.10
2019-01-22T18:18:46.404Z,100818.65
2019-01-22T18:21:49.505Z,100813.39
2019-01-22T18:24:53.135Z,100809.01
2019-01-22T18:27:56.716Z,100816.92
2019-01-22T18:31:00.252Z,100810.16
2019-01-22T18:34:03.892Z,100815.64
2019-01-22T18:37:07.426Z,100813.07
2019-01-22T18:40:11.891Z,100812.05
2019-01-22T18:43:15.492Z,100807.01
2019-01-22T18:46:19.108Z,100799.93
2019-01-22T18:49:22.714Z,100790.39
2019-01-22T18:52:26.330Z,100791.56
2019-01-22T18:55:29.984Z,100788.18
2019-01-22T18:58:33.654Z,100782.20
2019-01-22T19:01:37.328Z,100777.58
2019-01-22T19:04:40.896Z,100774.09
2019-01-22T19:07:44.615Z,100774.83
2019-01-22T19:10:48.328Z,100775.20
2019-01-22T19:13:51.937Z,100766.84
2019-01-22T19:16:55.737Z,100761.33
2019-01-22T19:19:59.370Z,100759.96
2019-01-22T19:23:03.052Z,100760.69
2019-01-22T19:26:06.789Z,100756.43
2019-01-22T19:29:10.470Z,100753.77
2019-01-22T19:32:15.363Z,100752.49
2019-01-22T19:35:21.499Z,100752.15
2019-01-22T19:38:25.120Z,100749.91
2019-01-22T19:41:28.720Z,100746.70
2019-01-22T19:44:32.298Z,100744.30
2019-01-22T19:47:36.255Z,100745.88
2019-01-22T19:50:39.872Z,100733.36
2019-01-22T19:53:43.470Z,100736.15
2019-01-22T19:56:47.114Z,100725.96
2019-01-22T19:59:50.889Z,100718.90
2019-01-22T20:02:55.944Z,100716.44
2019-01-22T20:05:59.597Z,100714.09
2019-01-22T20:09:03.345Z,100720.64
2019-01-22T20:12:08.000Z,100715.14
2019-01-22T20:15:12.148Z,100716.76
2019-01-22T20:18:15.754Z,100707.47
2019-01-22T20:21:21.424Z,100709.04
2019-01-22T20:24:25.131Z,100704.55
2019-01-22T20:27:28.699Z,100706.79
2019-01-22T20:30:35.483Z,100700.56
2019-01-22T20:33:39.230Z,100705.35
2019-01-22T20:36:42.840Z,100706.18
2019-01-22T20:39:46.380Z,100704.68
2019-01-22T20:42:50.265Z,100699.85
2019-01-22T20:45:53.860Z,100693.04
2019-01-22T20:48:57.665Z,100695.80
2019-01-22T20:52:01.311Z,100692.31
2019-01-22T20:55:05.666Z,100687.68
2019-01-22T20:58:09.342Z,100689.15
2019-01-22T21:01:12.937Z,100689.63
2019-01-22T21:04:16.702Z,100691.35
2019-01-22T21:07:20.609Z,100693.97
2019-01-22T21:10:28.182Z,100694.14
2019-01-22T21:13:31.860Z,100694.05
2019-01-22T21:16:35.550Z,100689.27
2019-01-22T21:19:39.246Z,100689.48
2019-01-22T21:22:42.943Z,100681.37
2019-01-22T21:25:46.569Z,100680.94
2019-01-22T21:28:50.150Z,100680.22
2019-01-22T21:31:53.795Z,100676.88
2019-01-22T21:34:57.424Z,100683.00
2019-01-22T21:38:01.163Z,100672.71
2019-01-22T21:41:04.894Z,100674.12
2019-01-22T21:44:08.463Z,100670.53
2019-01-22T21:47:12.147Z,100675.69
2019-01-22T21:50:15.824Z,100671.39
2019-01-22T21:53:19.366Z,100667.34
2019-01-22T21:56:23.064Z,100654.93
2019-01-22T21:59:27.621Z,100657.96
2019-01-22T22:02:31.405Z,100654.38
2019-01-22T22:05:35.169Z,100655.04
2019-01-22T22:08:38.772Z,100655.66
2019-01-22T22:11:42.311Z,100644.69
2019-01-22T22:14:45.916Z,100646.78
2019-01-22T22:17:49.645Z,100639.61
2019-01-22T22:20:53.184Z,100633.31
2019-01-22T22:23:56.886Z,100632.50
2019-01-22T22:27:00.506Z,100623.81
2019-01-22T22:30:04.241Z,100622.67
2019-01-22T22:33:07.809Z,100626.55
2019-01-22T22:36:11.390Z,100617.64
2019-01-22T22:39:15.014Z,100620.46
2019-01-22T22:42:18.578Z,100616.96
2019-01-22T22:45:22.206Z,100616.79
2019-01-22T22:48:25.874Z,100606.61
2019-01-22T22:51:29.408Z,100611.58
2019-01-22T22:54:33.063Z,100611.17
2019-01-22T22:57:36.585Z,100605.45
2019-01-22T23:00:45.248Z,100595.25
2019-01-22T23:03:49.006Z,100592.52
2019-01-22T23:06:52.590Z,100585.25
2019-01-22T23:09:56.131Z,100580.96
2019-01-22T23:12:59.764Z,100570.44
2019-01-22T23:16:03.411Z,100564.64
2019-01-22T23:19:07.026Z,100565.85
2019-01-22T23:22:10.598Z,100563.22
2019-01-22T23:25:14.236Z,100556.90
2019-01-22T23:28:17.810Z,100555.97
2019-01-22T23:31:21.407Z,100547.26
2019-01-22T23:34:25.038Z,100538.05
2019-01-22T23:37:29.592Z,100530.53
2019-01-22T23:40:33.299Z,100525.09
2019-01-22T23:43:36.996Z,100520.61
2019-01-22T23:46:40.722Z,100513.88
2019-01-22T23:49:44.422Z,100515.55
2019-01-22T23:52:48.049Z,100509.90
2019-01-22T23:55:51.678Z,100508.75
2019-01-22T23:58:55.340Z,100503.17
